createdAt,value
2023-03-17T00:02:42.702Z,6.20
2023-03-17T00:05:33.367Z,5.05
2023-03-17T00:08:23.240Z,5.28
2023-03-17T00:11:16.778Z,4.55
2023-03-17T00:14:03.347Z,4.88
2023-03-17T00:16:50.459Z,3.80
2023-03-17T00:19:36.593Z,7.28
2023-03-17T00:22:22.268Z,5.88
2023-03-17T00:25:22.149Z,8.07
2023-03-17T00:28:30.738Z,7.40
2023-03-17T00:31:21.230Z,7.40
2023-03-17T00:34:08.210Z,5.57
2023-03-17T00:36:53.724Z,6.05
2023-03-17T00:39:41.231Z,4.60
2023-03-17T00:42:27.056Z,4.72
2023-03-17T00:45:12.996Z,6.63
2023-03-17T00:47:58.226Z,4.82
2023-03-17T00:50:49.682Z,4.43
2023-03-17T00:53:36.154Z,5.80
2023-03-17T00:56:21.870Z,9.57
2023-03-17T00:59:36.057Z,7.05
2023-03-17T01:02:26.726Z,6.18
2023-03-17T01:05:13.110Z,5.13
2023-03-17T01:07:59.793Z,5.90
2023-03-17T01:10:48.397Z,10.25
2023-03-17T01:13:38.589Z,6.80
2023-03-17T01:16:24.086Z,6.45
2023-03-17T01:19:11.731Z,4.45
2023-03-17T01:21:58.123Z,6.10
2023-03-17T01:24:43.553Z,6.82
2023-03-17T01:27:33.700Z,6.38
2023-03-17T01:30:38.820Z,5.55
2023-03-17T01:33:25.870Z,5.47
2023-03-17T01:36:15.781Z,4.60
2023-03-17T01:39:01.333Z,5.32
2023-03-17T01:41:47.584Z,5.85
2023-03-17T01:44:33.873Z,6.20
2023-03-17T01:47:25.335Z,4.68
2023-03-17T01:50:11.096Z,8.43
2023-03-17T01:52:57.706Z,9.25
2023-03-17T01:55:45.516Z,5.28
2023-03-17T01:58:33.517Z,6.80
2023-03-17T02:01:25.602Z,6.90
2023-03-17T02:04:15.099Z,5.80
2023-03-17T02:07:00.912Z,5.15
2023-03-17T02:09:47.062Z,6.88
2023-03-17T02:12:35.571Z,4.93
2023-03-17T02:15:35.628Z,7.07
2023-03-17T02:18:26.014Z,7.22
2023-03-17T02:21:41.091Z,4.95
2023-03-17T02:24:49.757Z,8.32
2023-03-17T02:27:43.985Z,4.68
2023-03-17T02:30:30.188Z,5.70
2023-03-17T02:33:15.928Z,6.03
2023-03-17T02:36:09.513Z,6.45
2023-03-17T02:38:58.141Z,4.75
2023-03-17T02:41:49.239Z,6.45
2023-03-17T02:44:34.955Z,8.13
2023-03-17T02:47:20.817Z,5.30
2023-03-17T02:50:07.793Z,7.72
2023-03-17T02:52:53.593Z,8.43
2023-03-17T02:55:43.630Z,5.15
2023-03-17T02:58:29.284Z,4.65
2023-03-17T03:01:15.657Z,6.00
2023-03-17T03:04:01.444Z,5.63
2023-03-17T03:06:47.805Z,5.55
2023-03-17T03:09:33.112Z,4.93
2023-03-17T03:12:18.653Z,4.18
2023-03-17T03:15:05.431Z,4.68
2023-03-17T03:17:51.217Z,5.75
2023-03-17T03:20:36.746Z,5.97
2023-03-17T03:23:22.571Z,6.95
2023-03-17T03:26:10.218Z,6.10
2023-03-17T03:28:59.892Z,5.95
2023-03-17T03:31:47.771Z,5.18
2023-03-17T03:34:33.467Z,6.30
2023-03-17T03:37:18.845Z,6.30
2023-03-17T03:40:07.538Z,5.70
2023-03-17T03:42:53.713Z,5.35
2023-03-17T03:45:39.306Z,4.72
2023-03-17T03:48:24.651Z,5.63
2023-03-17T03:51:11.022Z,7.68
2023-03-17T03:53:56.242Z,6.63
2023-03-17T03:56:41.838Z,5.35
2023-03-17T03:59:27.613Z,6.63
2023-03-17T04:02:13.398Z,5.82
2023-03-17T04:04:59.354Z,4.72
2023-03-17T04:07:47.961Z,5.25
2023-03-17T04:10:34.081Z,3.95
2023-03-17T04:13:19.769Z,5.43
2023-03-17T04:16:09.815Z,7.15
2023-03-17T04:18:57.970Z,3.95
2023-03-17T04:21:46.308Z,5.07
2023-03-17T04:24:34.931Z,5.75
2023-03-17T04:27:23.258Z,3.92
2023-03-17T04:30:12.245Z,5.93
2023-03-17T04:32:58.885Z,6.13
2023-03-17T04:35:44.258Z,5.47
2023-03-17T04:38:29.897Z,4.47
2023-03-17T04:41:15.731Z,5.30
2023-03-17T04:44:01.337Z,5.57
2023-03-17T04:46:49.913Z,4.97
2023-03-17T04:49:35.369Z,5.70
2023-03-17T04:52:20.636Z,4.60
2023-03-17T04:55:08.390Z,7.75
2023-03-17T04:57:56.426Z,3.42
2023-03-17T05:00:42.038Z,5.97
2023-03-17T05:03:28.640Z,4.22
2023-03-17T05:06:14.281Z,5.53
2023-03-17T05:08:59.680Z,5.07
2023-03-17T05:11:44.921Z,7.95
2023-03-17T05:14:50.741Z,6.05
2023-03-17T05:17:36.318Z,5.28
2023-03-17T05:20:24.740Z,6.18
2023-03-17T05:23:10.552Z,4.50
2023-03-17T05:25:55.849Z,6.35
2023-03-17T05:28:41.523Z,5.57
2023-03-17T05:31:27.212Z,4.68
2023-03-17T05:34:15.181Z,5.70
2023-03-17T05:37:00.859Z,5.53
2023-03-17T05:39:46.591Z,5.15
2023-03-17T05:42:32.253Z,5.18
2023-03-17T05:45:18.656Z,7.20
2023-03-17T05:48:07.290Z,6.28
2023-03-17T05:50:55.668Z,6.15
2023-03-17T05:53:47.766Z,6.43
2023-03-17T05:56:33.944Z,5.97
2023-03-17T05:59:19.893Z,4.95
2023-03-17T06:02:05.709Z,7.35
2023-03-17T06:04:52.161Z,8.85
2023-03-17T06:07:50.885Z,5.57
2023-03-17T06:10:36.925Z,5.85
2023-03-17T06:13:23.184Z,4.35
2023-03-17T06:16:08.774Z,10.45
2023-03-17T06:18:54.526Z,5.85
2023-03-17T06:21:43.409Z,5.25
2023-03-17T06:24:28.541Z,10.10
2023-03-17T06:27:14.439Z,7.00
2023-03-17T06:30:03.190Z,4.78
2023-03-17T06:32:49.161Z,8.65
2023-03-17T06:35:35.437Z,9.75
2023-03-17T06:38:22.057Z,6.70
2023-03-17T06:41:07.822Z,5.90
2023-03-17T06:43:53.452Z,3.40
2023-03-17T06:46:41.441Z,4.38
2023-03-17T06:49:27.668Z,9.73
2023-03-17T06:52:17.206Z,5.38
2023-03-17T06:55:04.140Z,6.97
2023-03-17T06:57:51.363Z,5.30
2023-03-17T07:00:38.437Z,7.47
2023-03-17T07:03:24.184Z,10.90
2023-03-17T07:06:14.874Z,4.68
2023-03-17T07:09:03.004Z,5.47
2023-03-17T07:11:58.162Z,4.88
2023-03-17T07:14:43.378Z,6.05
2023-03-17T07:17:29.034Z,7.82
2023-03-17T07:20:14.480Z,5.28
2023-03-17T07:23:00.486Z,4.78
2023-03-17T07:25:47.478Z,4.78
2023-03-17T07:28:35.511Z,5.38
2023-03-17T07:31:20.922Z,6.57
2023-03-17T07:34:06.771Z,6.57
2023-03-17T07:36:52.271Z,5.05
2023-03-17T07:39:38.478Z,5.55
2023-03-17T07:42:24.223Z,6.47
2023-03-17T07:45:09.913Z,6.38
2023-03-17T07:47:55.190Z,5.57
2023-03-17T07:50:41.041Z,5.25
2023-03-17T07:53:26.623Z,6.65
2023-03-17T07:56:13.594Z,7.78
2023-03-17T07:59:01.924Z,9.77
2023-03-17T08:01:48.085Z,6.03
2023-03-17T08:04:34.713Z,9.30
2023-03-17T08:07:20.375Z,4.88
2023-03-17T08:10:07.438Z,5.55
2023-03-17T08:12:54.099Z,6.78
2023-03-17T08:15:39.996Z,9.13
2023-03-17T08:18:25.600Z,10.82
2023-03-17T08:21:11.471Z,4.75
2023-03-17T08:23:58.165Z,4.60
2023-03-17T08:26:53.177Z,4.20
2023-03-17T08:29:38.462Z,7.10
2023-03-17T08:32:23.678Z,5.35
2023-03-17T08:35:16.345Z,6.95
2023-03-17T08:38:02.426Z,12.05
2023-03-17T08:40:51.282Z,8.20
2023-03-17T08:43:52.456Z,7.72
2023-03-17T08:46:38.688Z,7.30
2023-03-17T08:49:28.600Z,8.73
2023-03-17T08:52:14.841Z,7.40
2023-03-17T08:55:00.852Z,8.10
2023-03-17T08:57:46.507Z,9.35
2023-03-17T09:00:31.933Z,6.28
2023-03-17T09:03:17.915Z,10.20
2023-03-17T09:06:06.666Z,7.10
2023-03-17T09:08:55.527Z,9.02
2023-03-17T09:11:41.203Z,6.07
2023-03-17T09:14:27.585Z,6.78
2023-03-17T09:17:14.609Z,5.57
2023-03-17T09:20:05.433Z,7.68
2023-03-17T09:22:51.131Z,8.85
2023-03-17T09:25:42.213Z,14.50
2023-03-17T09:28:29.133Z,6.82
2023-03-17T09:31:17.271Z,9.63
2023-03-17T09:34:05.332Z,8.93
2023-03-17T09:36:51.956Z,6.68
2023-03-17T09:39:37.799Z,9.55
2023-03-17T09:42:38.861Z,8.98
2023-03-17T09:45:43.357Z,9.15
2023-03-17T09:48:40.177Z,16.83
2023-03-17T09:51:26.654Z,10.55
2023-03-17T09:54:21.079Z,12.88
2023-03-17T09:57:28.995Z,9.50
2023-03-17T10:00:23.243Z,7.97
2023-03-17T10:03:13.407Z,7.30
2023-03-17T10:06:33.639Z,7.93
2023-03-17T10:09:30.090Z,6.40
2023-03-17T10:12:39.135Z,9.70
2023-03-17T10:15:38.419Z,14.93
2023-03-17T10:18:30.319Z,6.07
2023-03-17T10:21:24.246Z,12.30
2023-03-17T10:24:16.278Z,11.32
2023-03-17T10:27:05.973Z,10.30
2023-03-17T10:29:51.888Z,7.68
2023-03-17T10:32:39.119Z,10.70
2023-03-17T10:35:25.117Z,10.20
2023-03-17T10:38:21.060Z,6.80
2023-03-17T10:41:09.963Z,8.68
2023-03-17T10:43:57.866Z,8.75
2023-03-17T10:46:54.431Z,12.40
2023-03-17T10:49:39.987Z,12.75
2023-03-17T10:52:40.707Z,11.90
2023-03-17T10:55:38.347Z,11.23
2023-03-17T10:58:37.497Z,10.43
2023-03-17T11:01:29.246Z,11.73
2023-03-17T11:04:43.987Z,10.45
2023-03-17T11:07:40.329Z,11.30
2023-03-17T11:10:27.670Z,9.00
2023-03-17T11:13:18.782Z,10.27
2023-03-17T11:16:19.480Z,10.30
2023-03-17T11:19:12.434Z,8.75
2023-03-17T11:22:20.530Z,13.40
2023-03-17T11:25:15.880Z,10.18
2023-03-17T11:28:18.880Z,9.80
2023-03-17T11:31:30.955Z,9.93
2023-03-17T11:34:30.645Z,9.75
2023-03-17T11:37:34.105Z,13.25
2023-03-17T11:40:22.077Z,8.25
2023-03-17T11:43:35.370Z,17.90
2023-03-17T11:46:48.596Z,13.88
2023-03-17T11:49:39.679Z,8.68
2023-03-17T11:52:57.956Z,14.73
2023-03-17T11:55:52.852Z,11.20
2023-03-17T11:58:45.020Z,12.32
2023-03-17T12:01:44.138Z,9.90
2023-03-17T12:04:36.462Z,9.90
2023-03-17T12:07:37.460Z,8.20
2023-03-17T12:10:54.886Z,8.60
2023-03-17T12:13:47.628Z,7.18
2023-03-17T12:16:45.933Z,9.52
2023-03-17T12:20:04.458Z,10.50
2023-03-17T12:23:21.093Z,11.95
2023-03-17T12:26:14.136Z,10.50
2023-03-17T12:29:15.317Z,12.05
2023-03-17T12:32:20.053Z,12.48
2023-03-17T12:35:29.778Z,13.10
2023-03-17T12:38:30.655Z,10.77
2023-03-17T12:41:28.740Z,12.18
2023-03-17T12:44:38.129Z,10.50
2023-03-17T12:47:36.408Z,12.45
2023-03-17T12:50:49.859Z,16.02
2023-03-17T12:53:50.863Z,10.45
2023-03-17T12:56:43.967Z,10.85
2023-03-17T12:59:39.353Z,8.60
2023-03-17T13:02:30.574Z,15.63
2023-03-17T13:05:18.838Z,12.85
2023-03-17T13:08:08.371Z,12.50
2023-03-17T13:11:28.272Z,10.43
2023-03-17T13:14:39.736Z,10.27
2023-03-17T13:17:32.284Z,14.10
2023-03-17T13:20:20.696Z,11.40
2023-03-17T13:23:17.780Z,12.13
2023-03-17T13:26:03.133Z,16.92
2023-03-17T13:28:50.812Z,14.30
2023-03-17T13:31:37.541Z,13.90
2023-03-17T13:34:22.924Z,10.57
2023-03-17T13:37:24.797Z,11.77
2023-03-17T13:40:24.789Z,11.38
2023-03-17T13:43:16.241Z,12.38
2023-03-17T13:46:25.322Z,12.45
2023-03-17T13:49:24.210Z,15.15
2023-03-17T13:52:16.281Z,12.77
2023-03-17T13:55:26.326Z,8.50
2023-03-17T13:58:12.313Z,10.02
2023-03-17T14:01:03.779Z,10.25
2023-03-17T14:03:51.369Z,11.60
2023-03-17T14:06:38.259Z,12.02
2023-03-17T14:09:35.752Z,8.48
2023-03-17T14:12:57.656Z,12.40
2023-03-17T14:16:04.913Z,9.35
2023-03-17T14:18:55.948Z,9.95
2023-03-17T14:21:44.616Z,10.20
2023-03-17T14:24:44.145Z,8.82
2023-03-17T14:27:33.862Z,10.50
2023-03-17T14:30:28.057Z,14.20
2023-03-17T14:33:23.421Z,13.75
2023-03-17T14:36:14.341Z,9.88
2023-03-17T14:39:00.100Z,6.88
2023-03-17T14:41:45.554Z,9.95
2023-03-17T14:44:43.460Z,6.57
2023-03-17T14:47:37.797Z,8.68
2023-03-17T14:50:30.311Z,9.90
2023-03-17T14:53:16.184Z,11.40
2023-03-17T14:56:03.358Z,12.13
2023-03-17T14:58:51.740Z,12.52
2023-03-17T15:01:41.964Z,12.80
2023-03-17T15:04:32.918Z,9.13
2023-03-17T15:07:40.513Z,9.25
2023-03-17T15:10:34.542Z,8.60
2023-03-17T15:13:20.063Z,11.05
2023-03-17T15:16:29.494Z,10.45
2023-03-17T15:19:22.802Z,10.50
2023-03-17T15:22:31.146Z,8.02
2023-03-17T15:25:37.637Z,7.78
2023-03-17T15:28:27.667Z,6.65
2023-03-17T15:31:28.426Z,5.38
2023-03-17T15:34:14.966Z,10.25
2023-03-17T15:37:06.536Z,10.68
2023-03-17T15:39:55.900Z,11.02
2023-03-17T15:42:42.777Z,9.57
2023-03-17T15:45:28.646Z,10.73
2023-03-17T15:48:32.672Z,8.45
2023-03-17T15:51:22.665Z,15.45
2023-03-17T15:54:13.554Z,11.10
2023-03-17T15:57:01.428Z,10.57
2023-03-17T15:59:47.070Z,11.13
2023-03-17T16:02:34.591Z,12.65
2023-03-17T16:05:22.850Z,16.10
2023-03-17T16:08:14.878Z,11.07
2023-03-17T16:11:02.203Z,9.98
2023-03-17T16:13:47.839Z,14.82
2023-03-17T16:16:37.615Z,11.88
2023-03-17T16:19:24.946Z,12.52
2023-03-17T16:22:46.730Z,14.00
2023-03-17T16:25:34.630Z,12.88
2023-03-17T16:28:23.181Z,12.43
2023-03-17T16:31:24.963Z,14.93
2023-03-17T16:34:23.676Z,14.98
2023-03-17T16:37:16.695Z,12.07
2023-03-17T16:40:02.197Z,10.48
2023-03-17T16:42:48.769Z,11.88
2023-03-17T16:45:35.331Z,17.67
2023-03-17T16:48:21.081Z,12.38
2023-03-17T16:51:06.656Z,17.20
2023-03-17T16:53:52.114Z,16.88
2023-03-17T16:56:40.129Z,14.00
2023-03-17T16:59:31.280Z,23.33
2023-03-17T17:02:17.324Z,14.05
2023-03-17T17:05:05.614Z,13.57
2023-03-17T17:07:54.534Z,12.75
2023-03-17T17:10:41.540Z,19.65
2023-03-17T17:13:27.757Z,14.30
2023-03-17T17:16:35.455Z,14.25
2023-03-17T17:19:20.950Z,14.30
2023-03-17T17:22:08.616Z,18.00
2023-03-17T17:24:53.754Z,15.20
2023-03-17T17:27:41.851Z,16.23
2023-03-17T17:30:30.151Z,15.23
2023-03-17T17:33:16.930Z,17.13
2023-03-17T17:36:11.555Z,11.88
2023-03-17T17:38:57.113Z,20.63
2023-03-17T17:41:42.783Z,21.33
2023-03-17T17:44:28.998Z,14.20
2023-03-17T17:47:18.017Z,13.20
2023-03-17T17:50:03.757Z,15.25
2023-03-17T17:52:49.475Z,13.95
2023-03-17T17:55:47.229Z,13.88
2023-03-17T17:58:32.700Z,15.93
2023-03-17T18:01:21.900Z,13.93
2023-03-17T18:04:27.451Z,21.42
2023-03-17T18:07:14.603Z,17.17
2023-03-17T18:09:59.953Z,15.90
2023-03-17T18:12:49.284Z,15.43
2023-03-17T18:15:35.133Z,18.58
2023-03-17T18:18:20.895Z,17.23
2023-03-17T18:21:06.373Z,15.98
2023-03-17T18:23:55.150Z,10.60
2023-03-17T18:26:41.575Z,14.38
2023-03-17T18:29:27.983Z,18.15
2023-03-17T18:32:13.805Z,17.92
2023-03-17T18:35:03.353Z,20.55
2023-03-17T18:37:50.600Z,17.85
2023-03-17T18:40:36.475Z,18.00
2023-03-17T18:43:21.981Z,15.32
2023-03-17T18:46:07.777Z,19.45
2023-03-17T18:48:53.519Z,20.35
2023-03-17T18:51:39.150Z,12.32
2023-03-17T18:54:24.376Z,20.38
2023-03-17T18:57:14.260Z,15.30
2023-03-17T19:00:02.549Z,18.67
2023-03-17T19:02:47.805Z,13.35
2023-03-17T19:05:38.153Z,13.88
2023-03-17T19:08:24.413Z,15.65
2023-03-17T19:11:12.133Z,13.43
2023-03-17T19:14:00.029Z,17.83
2023-03-17T19:16:45.616Z,17.92
2023-03-17T19:19:31.833Z,15.50
2023-03-17T19:22:17.434Z,17.92
2023-03-17T19:25:04.349Z,16.40
2023-03-17T19:27:50.019Z,12.32
2023-03-17T19:30:37.534Z,14.32
2023-03-17T19:33:23.062Z,12.40
2023-03-17T19:36:13.108Z,14.52
2023-03-17T19:38:58.521Z,16.30
2023-03-17T19:41:44.312Z,11.77
2023-03-17T19:44:32.223Z,15.48
2023-03-17T19:47:18.024Z,15.40
2023-03-17T19:50:05.188Z,13.00
2023-03-17T19:52:53.073Z,13.65
2023-03-17T19:55:39.017Z,10.88
2023-03-17T19:58:31.173Z,13.00
2023-03-17T20:01:17.404Z,15.35
2023-03-17T20:04:02.728Z,15.73
2023-03-17T20:06:48.636Z,16.85
2023-03-17T20:09:35.434Z,14.27
2023-03-17T20:12:23.788Z,11.93
2023-03-17T20:15:12.455Z,17.20
2023-03-17T20:17:58.006Z,13.95
2023-03-17T20:20:50.481Z,17.23
2023-03-17T20:23:37.754Z,16.15
2023-03-17T20:26:22.958Z,11.13
2023-03-17T20:29:12.555Z,17.17
2023-03-17T20:32:04.330Z,12.93
2023-03-17T20:34:52.433Z,13.25
2023-03-17T20:37:38.837Z,15.65
2023-03-17T20:40:25.341Z,16.88
2023-03-17T20:43:11.109Z,13.38
2023-03-17T20:45:56.790Z,16.23
2023-03-17T20:48:47.679Z,19.10
2023-03-17T20:51:36.852Z,16.90
2023-03-17T20:54:23.367Z,18.92
2023-03-17T20:57:12.409Z,14.68
2023-03-17T20:59:58.250Z,13.23
2023-03-17T21:02:45.081Z,14.77
2023-03-17T21:05:32.281Z,14.55
2023-03-17T21:08:17.594Z,14.85
2023-03-17T21:11:05.472Z,16.80
2023-03-17T21:13:54.286Z,11.40
2023-03-17T21:16:42.930Z,12.70
2023-03-17T21:19:28.308Z,20.90
2023-03-17T21:22:13.977Z,15.25
2023-03-17T21:24:59.516Z,18.67
2023-03-17T21:27:46.048Z,17.77
2023-03-17T21:30:32.207Z,18.98
2023-03-17T21:33:18.133Z,14.73
2023-03-17T21:36:04.874Z,19.48
2023-03-17T21:38:52.597Z,18.33
2023-03-17T21:41:39.080Z,14.55
2023-03-17T21:44:25.004Z,16.75
2023-03-17T21:47:10.311Z,18.15
2023-03-17T21:49:56.563Z,18.80
2023-03-17T21:52:45.588Z,21.10
2023-03-17T21:55:31.935Z,17.55
2023-03-17T21:58:17.146Z,21.30
2023-03-17T22:01:02.955Z,20.00
2023-03-17T22:03:50.169Z,21.80
2023-03-17T22:06:35.850Z,19.63
2023-03-17T22:09:24.427Z,17.27
2023-03-17T22:12:24.276Z,20.95
2023-03-17T22:15:10.470Z,18.30
2023-03-17T22:17:57.786Z,18.50
2023-03-17T22:20:44.817Z,16.50
2023-03-17T22:23:54.882Z,18.33
2023-03-17T22:26:40.762Z,17.75
2023-03-17T22:29:26.481Z,28.70
2023-03-17T22:32:11.781Z,22.70
2023-03-17T22:34:57.528Z,21.05
2023-03-17T22:37:44.203Z,17.80
2023-03-17T22:40:30.717Z,21.38
2023-03-17T22:43:16.204Z,19.48
2023-03-17T22:46:01.443Z,19.90
2023-03-17T22:48:47.689Z,20.52
2023-03-17T22:51:37.200Z,23.95
2023-03-17T22:54:23.063Z,22.02
2023-03-17T22:57:08.804Z,22.38
2023-03-17T22:59:57.050Z,22.75
2023-03-17T23:02:48.504Z,20.25
2023-03-17T23:05:34.272Z,18.25
2023-03-17T23:08:20.896Z,19.92
2023-03-17T23:11:10.597Z,17.58
2023-03-17T23:14:00.043Z,18.15
2023-03-17T23:16:47.799Z,19.92
2023-03-17T23:19:45.621Z,16.65
2023-03-17T23:22:33.608Z,24.05
2023-03-17T23:25:19.337Z,21.55
2023-03-17T23:28:05.417Z,20.02
2023-03-17T23:30:52.597Z,25.25
2023-03-17T23:33:38.717Z,18.75
2023-03-17T23:36:24.466Z,24.77
2023-03-17T23:39:12.578Z,24.95
2023-03-17T23:41:57.772Z,19.80
2023-03-17T23:44:47.272Z,23.80
2023-03-17T23:47:33.782Z,23.23
2023-03-17T23:50:34.356Z,22.85
2023-03-17T23:53:22.392Z,22.42
2023-03-17T23:56:09.965Z,31.02
2023-03-17T23:58:55.899Z,26.95
